Perkins Township, Maine
Current Conditions -  °F | °C
As of 11:53 PM on Thursday 30 Oct 2014 (Local Time) from KAUG Reporting Station
Broken Clouds Broken Clouds  
Wind Chill: 39°   Ceiling: 4400
Heat Index: 39°   Visibility: 10mi
Dew Point: 31°   Wind: 3mph
Humidity: 73%   Direction: 290°WNW
Pressure: 29.99"   Gusts: NA
Location:  44.5915°N, 70.2983°W
Report Text: KAUG 310353Z AUTO 29003KT 10SM BKN044 04/M01 A2999 RMK AO2 SLP157 T00391006
Loading
Personal Weather Stations






























Interactive Weather Map
Tropical Storm Tracking
New forecast layout! Learn more

10-Day Weather Forecast

Advertisements
Track Severe Weather on mobile